createdAt,value
2022-09-27T00:01:08.150Z,9.77
2022-09-27T00:03:36.720Z,10.60
2022-09-27T00:06:05.915Z,10.87
2022-09-27T00:08:34.409Z,10.67
2022-09-27T00:11:04.816Z,11.10
2022-09-27T00:13:33.570Z,11.37
2022-09-27T00:16:04.760Z,12.20
2022-09-27T00:18:33.310Z,11.87
2022-09-27T00:21:06.280Z,12.40
2022-09-27T00:23:34.764Z,13.60
2022-09-27T00:26:05.495Z,14.10
2022-09-27T00:28:34.279Z,14.43
2022-09-27T00:31:02.993Z,15.27
2022-09-27T00:33:31.513Z,15.77
2022-09-27T00:36:05.751Z,17.13
2022-09-27T00:38:34.135Z,18.63
2022-09-27T00:41:04.072Z,17.47
2022-09-27T00:43:44.712Z,19.00
2022-09-27T00:46:13.824Z,19.93
2022-09-27T00:48:42.658Z,19.57
2022-09-27T00:51:11.938Z,19.97
2022-09-27T00:53:43.047Z,19.80
2022-09-27T00:56:14.836Z,20.93
2022-09-27T00:58:45.360Z,20.10
2022-09-27T01:01:14.797Z,19.47
2022-09-27T01:03:47.049Z,20.33
2022-09-27T01:06:16.528Z,20.27
2022-09-27T01:08:44.938Z,20.77
2022-09-27T01:11:28.729Z,19.90
2022-09-27T01:14:03.844Z,20.40
2022-09-27T01:16:38.654Z,20.73
2022-09-27T01:19:11.514Z,22.33
2022-09-27T01:21:43.753Z,21.20
2022-09-27T01:24:29.801Z,21.73
2022-09-27T01:27:18.358Z,20.17
2022-09-27T01:29:55.275Z,20.90
2022-09-27T01:32:29.696Z,20.00
2022-09-27T01:35:03.657Z,18.90
2022-09-27T01:37:37.924Z,18.73
2022-09-27T01:40:11.442Z,18.37
2022-09-27T01:42:41.613Z,19.00
2022-09-27T01:45:12.111Z,19.47
2022-09-27T01:47:44.325Z,18.83
2022-09-27T01:50:13.628Z,17.93
2022-09-27T01:52:44.902Z,17.80
2022-09-27T01:55:15.161Z,18.63
2022-09-27T01:57:45.879Z,19.10
2022-09-27T02:00:14.902Z,18.50
2022-09-27T02:02:47.168Z,17.87
2022-09-27T02:05:18.009Z,18.00
2022-09-27T02:07:49.761Z,19.20
2022-09-27T02:10:20.468Z,19.50
2022-09-27T02:12:51.668Z,18.93
2022-09-27T02:15:20.576Z,21.23
2022-09-27T02:17:54.514Z,19.50
2022-09-27T02:20:28.710Z,20.10
2022-09-27T02:22:59.157Z,19.63
2022-09-27T02:25:29.487Z,20.57
2022-09-27T02:28:01.380Z,21.93
2022-09-27T02:30:29.892Z,19.03
2022-09-27T02:32:59.791Z,22.57
2022-09-27T02:35:29.651Z,28.47
2022-09-27T02:37:58.161Z,23.13
2022-09-27T02:40:27.342Z,22.23
2022-09-27T02:42:55.859Z,22.83
2022-09-27T02:45:24.355Z,20.60
2022-09-27T02:47:59.673Z,24.03
2022-09-27T02:50:48.985Z,22.87
2022-09-27T02:53:26.145Z,18.73
2022-09-27T02:56:05.203Z,17.40
2022-09-27T02:58:39.998Z,17.13
2022-09-27T03:01:10.752Z,14.57
2022-09-27T03:03:42.167Z,18.67
2022-09-27T03:06:12.405Z,13.60
2022-09-27T03:08:42.354Z,16.07
2022-09-27T03:11:10.767Z,15.47
2022-09-27T03:13:55.901Z,19.93
2022-09-27T03:16:28.522Z,13.17
2022-09-27T03:18:56.952Z,10.20
2022-09-27T03:21:25.370Z,11.37
2022-09-27T03:23:55.180Z,12.70
2022-09-27T03:26:23.579Z,11.40
2022-09-27T03:28:51.949Z,12.17
2022-09-27T03:31:20.458Z,11.83
2022-09-27T03:33:48.996Z,13.47
2022-09-27T03:36:17.422Z,13.80
2022-09-27T03:38:45.835Z,10.27
2022-09-27T03:41:15.578Z,7.67
2022-09-27T03:43:44.055Z,7.20
2022-09-27T03:46:12.473Z,7.90
2022-09-27T03:48:42.678Z,9.13
2022-09-27T03:51:12.305Z,6.47
2022-09-27T03:53:40.734Z,7.87
2022-09-27T03:56:09.139Z,7.03
2022-09-27T03:58:38.951Z,6.90
2022-09-27T04:01:07.566Z,9.87
2022-09-27T04:03:36.328Z,11.80
2022-09-27T04:06:04.898Z,10.77
2022-09-27T04:08:33.358Z,11.00
2022-09-27T04:11:02.383Z,10.77
2022-09-27T04:13:30.849Z,7.30
2022-09-27T04:16:02.927Z,10.30
2022-09-27T04:18:31.396Z,8.13
2022-09-27T04:21:00.024Z,8.37
2022-09-27T04:23:30.083Z,11.40
2022-09-27T04:25:58.895Z,8.67
2022-09-27T04:28:28.133Z,8.17
2022-09-27T04:30:56.555Z,10.00
2022-09-27T04:33:26.529Z,11.13
2022-09-27T04:36:12.626Z,8.63
2022-09-27T04:38:41.037Z,11.80
2022-09-27T04:41:09.497Z,10.53
2022-09-27T04:43:37.897Z,11.20
2022-09-27T04:46:06.448Z,14.37
2022-09-27T04:48:36.251Z,12.23
2022-09-27T04:51:04.683Z,12.20
2022-09-27T04:53:33.404Z,9.57
2022-09-27T04:56:06.796Z,12.73
2022-09-27T04:58:35.715Z,11.57
2022-09-27T05:01:04.485Z,11.67
2022-09-27T05:03:33.128Z,11.90
2022-09-27T05:06:03.068Z,12.90
2022-09-27T05:08:31.473Z,12.53
2022-09-27T05:10:59.818Z,12.50
2022-09-27T05:13:28.452Z,10.40
2022-09-27T05:15:56.842Z,13.30
2022-09-27T05:18:25.223Z,14.13
2022-09-27T05:20:53.605Z,13.73
2022-09-27T05:23:23.355Z,13.10
2022-09-27T05:25:55.252Z,11.80
2022-09-27T05:28:23.928Z,11.63
2022-09-27T05:30:52.435Z,9.63
2022-09-27T05:33:20.899Z,9.87
2022-09-27T05:35:53.731Z,10.93
2022-09-27T05:38:23.790Z,9.17
2022-09-27T05:40:52.463Z,9.67
2022-09-27T05:43:21.598Z,11.03
2022-09-27T05:45:50.321Z,8.90
2022-09-27T05:48:18.796Z,11.00
2022-09-27T05:50:47.300Z,8.67
2022-09-27T05:53:15.700Z,10.07
2022-09-27T05:55:45.432Z,8.83
2022-09-27T05:58:16.401Z,8.07
2022-09-27T06:00:45.059Z,6.90
2022-09-27T06:03:14.402Z,9.67
2022-09-27T06:05:42.793Z,6.63
2022-09-27T06:08:12.721Z,7.20
2022-09-27T06:10:41.899Z,7.67
2022-09-27T06:13:13.261Z,6.80
2022-09-27T06:15:42.806Z,6.43
2022-09-27T06:18:11.905Z,6.90
2022-09-27T06:20:41.541Z,8.13
2022-09-27T06:23:10.719Z,6.27
2022-09-27T06:25:39.567Z,7.33
2022-09-27T06:28:08.403Z,7.73
2022-09-27T06:30:40.642Z,7.47
2022-09-27T06:33:09.660Z,5.47
2022-09-27T06:35:38.212Z,8.07
2022-09-27T06:38:07.179Z,7.90
2022-09-27T06:40:35.555Z,7.20
2022-09-27T06:43:04.581Z,6.67
2022-09-27T06:45:32.924Z,8.93
2022-09-27T06:48:02.961Z,7.07
2022-09-27T06:50:32.580Z,7.47
2022-09-27T06:53:01.192Z,6.40
2022-09-27T06:55:29.805Z,6.27
2022-09-27T06:58:15.684Z,7.73
2022-09-27T07:00:44.156Z,7.73
2022-09-27T07:03:14.415Z,7.13
2022-09-27T07:05:42.955Z,6.47
2022-09-27T07:08:12.971Z,6.33
2022-09-27T07:10:41.981Z,4.90
2022-09-27T07:13:11.236Z,7.13
2022-09-27T07:15:42.089Z,8.67
2022-09-27T07:18:10.709Z,6.40
2022-09-27T07:20:40.498Z,6.03
2022-09-27T07:23:09.383Z,6.37
2022-09-27T07:25:37.746Z,6.97
2022-09-27T07:28:07.401Z,7.40
2022-09-27T07:30:35.956Z,5.47
2022-09-27T07:33:05.776Z,5.83
2022-09-27T07:35:35.176Z,5.20
2022-09-27T07:38:05.342Z,6.03
2022-09-27T07:40:33.778Z,5.30
2022-09-27T07:43:02.663Z,3.30
2022-09-27T07:45:31.259Z,8.13
2022-09-27T07:48:00.320Z,4.13
2022-09-27T07:50:28.997Z,5.40
2022-09-27T07:52:57.515Z,5.53
2022-09-27T07:55:27.427Z,2.97
2022-09-27T07:58:03.909Z,5.70
2022-09-27T08:00:32.421Z,4.50
2022-09-27T08:03:00.808Z,4.53
2022-09-27T08:05:29.217Z,2.63
2022-09-27T08:07:58.020Z,2.53
2022-09-27T08:10:31.623Z,4.53
2022-09-27T08:13:00.022Z,4.83
2022-09-27T08:15:29.406Z,3.07
2022-09-27T08:17:57.833Z,3.80
2022-09-27T08:20:26.209Z,4.93
2022-09-27T08:22:54.972Z,4.60
2022-09-27T08:25:24.507Z,4.00
2022-09-27T08:27:58.487Z,3.67
2022-09-27T08:30:27.240Z,4.30
2022-09-27T08:32:58.989Z,6.73
2022-09-27T08:35:29.034Z,3.43
2022-09-27T08:37:58.751Z,5.83
2022-09-27T08:40:29.696Z,4.10
2022-09-27T08:43:03.661Z,2.20
2022-09-27T08:45:34.495Z,4.50
2022-09-27T08:48:04.567Z,3.63
2022-09-27T08:50:39.527Z,2.27
2022-09-27T08:53:17.807Z,6.43
2022-09-27T08:55:48.073Z,2.13
2022-09-27T08:58:21.501Z,5.30
2022-09-27T09:00:51.975Z,2.50
2022-09-27T09:03:21.515Z,3.87
2022-09-27T09:05:54.546Z,2.07
2022-09-27T09:08:29.599Z,3.23
2022-09-27T09:11:21.508Z,5.40
2022-09-27T09:13:59.755Z,2.43
2022-09-27T09:16:33.649Z,2.90
2022-09-27T09:19:09.682Z,3.80
2022-09-27T09:21:43.110Z,2.57
2022-09-27T09:24:22.301Z,3.60
2022-09-27T09:26:57.578Z,3.17
2022-09-27T09:29:38.263Z,3.60
2022-09-27T09:32:09.573Z,3.13
2022-09-27T09:34:40.610Z,3.50
2022-09-27T09:37:13.511Z,4.60
2022-09-27T09:39:44.907Z,2.23
2022-09-27T09:42:15.733Z,3.37
2022-09-27T09:44:50.191Z,1.83
2022-09-27T09:47:24.787Z,3.27
2022-09-27T09:49:55.146Z,3.47
2022-09-27T09:52:25.553Z,2.37
2022-09-27T09:54:56.900Z,3.33
2022-09-27T09:57:27.639Z,2.50
2022-09-27T10:00:01.137Z,1.17
2022-09-27T10:02:32.143Z,2.73
2022-09-27T10:05:03.999Z,2.10
2022-09-27T10:07:37.268Z,2.07
2022-09-27T10:10:07.022Z,1.83
2022-09-27T10:12:35.561Z,1.97
2022-09-27T10:15:06.343Z,2.80
2022-09-27T10:17:37.130Z,1.33
2022-09-27T10:20:07.027Z,2.73
2022-09-27T10:22:37.848Z,2.20
2022-09-27T10:25:08.067Z,1.73
2022-09-27T10:27:40.845Z,5.27
2022-09-27T10:30:22.989Z,1.53
2022-09-27T10:32:53.601Z,3.40
2022-09-27T10:35:35.217Z,1.80
2022-09-27T10:38:15.023Z,3.07
2022-09-27T10:40:43.571Z,1.10
2022-09-27T10:43:29.464Z,1.23
2022-09-27T10:46:05.162Z,2.40
2022-09-27T10:48:33.615Z,4.53
2022-09-27T10:51:03.362Z,1.80
2022-09-27T10:53:32.868Z,2.37
2022-09-27T10:56:01.585Z,2.73
2022-09-27T10:58:31.406Z,3.07
2022-09-27T11:01:02.516Z,3.93
2022-09-27T11:03:33.620Z,4.00
2022-09-27T11:06:01.989Z,4.40
2022-09-27T11:08:32.040Z,2.33
2022-09-27T11:11:08.854Z,3.77
2022-09-27T11:13:37.916Z,4.60
2022-09-27T11:16:24.231Z,3.27
2022-09-27T11:18:59.205Z,2.30
2022-09-27T11:21:35.268Z,1.47
2022-09-27T11:24:21.707Z,1.47
2022-09-27T11:26:55.863Z,1.63
2022-09-27T11:29:30.385Z,1.13
2022-09-27T11:32:10.690Z,0.50
2022-09-27T11:34:56.898Z,1.10
2022-09-27T11:37:30.578Z,0.27
2022-09-27T11:40:15.207Z,0.50
2022-09-27T11:42:58.368Z,0.37
2022-09-27T11:45:56.439Z,0.90
2022-09-27T11:48:39.606Z,0.50
2022-09-27T11:51:13.261Z,1.33
2022-09-27T11:53:49.174Z,0.87
2022-09-27T11:56:23.829Z,1.83
2022-09-27T11:59:02.361Z,3.43
2022-09-27T12:01:35.743Z,1.30
2022-09-27T12:04:11.099Z,2.07
2022-09-27T12:06:45.282Z,2.73
2022-09-27T12:09:16.030Z,2.20
2022-09-27T12:11:46.691Z,1.40
2022-09-27T12:14:24.614Z,1.97
2022-09-27T12:16:56.218Z,2.03
2022-09-27T12:19:27.052Z,2.07
2022-09-27T12:21:58.057Z,5.53
2022-09-27T12:24:27.182Z,2.20
2022-09-27T12:26:57.040Z,4.50
2022-09-27T12:29:28.184Z,2.80
2022-09-27T12:31:59.524Z,1.93
2022-09-27T12:34:32.269Z,1.30
2022-09-27T12:37:04.792Z,2.23
2022-09-27T12:39:40.876Z,3.43
2022-09-27T12:42:14.330Z,2.60
2022-09-27T12:44:45.928Z,3.70
2022-09-27T12:47:23.800Z,2.27
2022-09-27T12:50:00.996Z,2.33
2022-09-27T12:52:33.876Z,3.00
2022-09-27T12:55:08.219Z,2.00
2022-09-27T12:57:45.013Z,3.27
2022-09-27T13:00:17.040Z,3.50
2022-09-27T13:03:17.165Z,3.17
2022-09-27T13:06:16.445Z,2.87
2022-09-27T13:09:06.001Z,2.83
2022-09-27T13:11:43.287Z,4.30
2022-09-27T13:14:17.174Z,4.07
2022-09-27T13:16:46.526Z,4.27
2022-09-27T13:19:39.220Z,3.47
2022-09-27T13:22:09.232Z,3.53
2022-09-27T13:24:45.540Z,1.27
2022-09-27T13:27:33.943Z,1.60
2022-09-27T13:33:09.527Z,1.50
2022-09-27T13:35:39.552Z,1.50
2022-09-27T13:38:21.990Z,1.07
2022-09-27T13:40:50.517Z,1.37
2022-09-27T13:43:49.473Z,1.03
2022-09-27T13:46:19.592Z,2.03
2022-09-27T13:48:51.617Z,1.80
2022-09-27T13:51:25.309Z,0.80
2022-09-27T13:53:58.673Z,1.23
2022-09-27T13:56:47.175Z,2.83
2022-09-27T13:59:18.341Z,0.90
2022-09-27T14:01:48.824Z,1.33
2022-09-27T14:04:19.840Z,1.97
2022-09-27T14:06:52.524Z,0.90
2022-09-27T14:09:22.517Z,1.47
2022-09-27T14:11:53.538Z,2.30
2022-09-27T14:14:24.583Z,1.80
2022-09-27T14:16:54.413Z,1.20
2022-09-27T14:19:25.573Z,2.53
2022-09-27T14:21:55.471Z,1.50
2022-09-27T14:24:28.958Z,1.43
2022-09-27T14:27:13.694Z,0.50
2022-09-27T14:29:43.075Z,1.10
2022-09-27T14:32:12.685Z,0.93
2022-09-27T14:34:47.197Z,0.80
2022-09-27T14:37:26.409Z,2.33
2022-09-27T14:39:55.681Z,0.70
2022-09-27T14:42:26.539Z,1.37
2022-09-27T14:44:55.270Z,1.20
2022-09-27T14:47:24.991Z,0.70
2022-09-27T14:49:55.459Z,1.10
2022-09-27T14:52:27.912Z,0.70
2022-09-27T14:55:02.432Z,1.00
2022-09-27T14:57:34.090Z,1.00
2022-09-27T15:00:05.610Z,1.87
2022-09-27T15:02:34.530Z,1.47
2022-09-27T15:05:02.960Z,0.90
2022-09-27T15:07:33.357Z,2.27
2022-09-27T15:10:03.184Z,1.90
2022-09-27T15:12:31.889Z,1.40
2022-09-27T15:15:01.786Z,1.50
2022-09-27T15:17:30.162Z,1.70
2022-09-27T15:20:00.201Z,1.30
2022-09-27T15:22:34.922Z,1.30
2022-09-27T15:25:10.040Z,2.10
2022-09-27T15:27:38.847Z,2.33
2022-09-27T15:30:07.753Z,2.10
2022-09-27T15:32:36.766Z,2.03
2022-09-27T15:35:09.199Z,1.43
2022-09-27T15:37:38.749Z,1.57
2022-09-27T15:40:30.997Z,1.57
2022-09-27T15:43:01.078Z,1.57
2022-09-27T15:45:31.917Z,1.90
2022-09-27T15:48:08.293Z,2.13
2022-09-27T15:50:37.374Z,2.50
2022-09-27T15:53:07.165Z,1.17
2022-09-27T15:55:38.056Z,0.70
2022-09-27T15:58:08.355Z,1.23
2022-09-27T16:00:37.213Z,1.07
2022-09-27T16:03:06.053Z,1.47
2022-09-27T16:05:34.458Z,1.63
2022-09-27T16:08:03.466Z,2.23
2022-09-27T16:10:34.528Z,1.43
2022-09-27T16:13:04.448Z,1.30
2022-09-27T16:15:32.872Z,2.60
2022-09-27T16:18:01.264Z,3.13
2022-09-27T16:20:29.994Z,1.67
2022-09-27T16:22:58.689Z,0.90
2022-09-27T16:25:27.299Z,2.83
2022-09-27T16:27:55.719Z,1.97
2022-09-27T16:30:25.479Z,2.03
2022-09-27T16:32:53.852Z,1.73
2022-09-27T16:35:22.950Z,2.90
2022-09-27T16:37:51.486Z,1.53
2022-09-27T16:40:19.983Z,1.03
2022-09-27T16:42:50.053Z,0.87
2022-09-27T16:45:19.712Z,2.27
2022-09-27T16:47:49.932Z,1.70
2022-09-27T16:50:35.962Z,1.70
2022-09-27T16:53:05.313Z,1.87
2022-09-27T16:55:33.855Z,2.13
2022-09-27T16:58:03.860Z,3.27
2022-09-27T17:00:33.206Z,2.43
2022-09-27T17:03:03.045Z,1.90
2022-09-27T17:05:31.831Z,1.20
2022-09-27T17:08:00.243Z,1.53
2022-09-27T17:10:28.639Z,1.93
2022-09-27T17:12:57.549Z,3.03
2022-09-27T17:15:27.487Z,2.90
2022-09-27T17:17:55.976Z,4.23
2022-09-27T17:20:25.702Z,1.40
2022-09-27T17:22:54.109Z,3.10
2022-09-27T17:25:22.500Z,2.67
2022-09-27T17:27:50.941Z,2.90
2022-09-27T17:30:21.029Z,2.47
2022-09-27T17:32:49.575Z,1.47
2022-09-27T17:35:18.005Z,1.90
2022-09-27T17:37:47.806Z,2.20
2022-09-27T17:40:16.855Z,2.50
2022-09-27T17:42:46.105Z,3.50
2022-09-27T17:45:14.471Z,3.97
2022-09-27T17:48:00.333Z,3.13
2022-09-27T17:50:28.863Z,3.57
2022-09-27T17:52:59.708Z,3.87
2022-09-27T17:55:28.674Z,3.60
2022-09-27T17:58:08.698Z,3.00
2022-09-27T18:00:38.682Z,3.77
2022-09-27T18:03:07.316Z,4.73
2022-09-27T18:05:35.894Z,3.50
2022-09-27T18:08:05.646Z,3.90
2022-09-27T18:10:34.691Z,3.53
2022-09-27T18:13:05.773Z,3.40
2022-09-27T18:15:37.316Z,4.00
2022-09-27T18:18:06.170Z,5.17
2022-09-27T18:20:35.866Z,6.50
2022-09-27T18:23:15.752Z,6.87
2022-09-27T18:25:45.171Z,3.93
2022-09-27T18:28:14.112Z,3.40
2022-09-27T18:30:43.065Z,4.03
2022-09-27T18:33:18.025Z,3.97
2022-09-27T18:35:46.956Z,5.87
2022-09-27T18:38:17.148Z,5.20
2022-09-27T18:40:56.596Z,4.87
2022-09-27T18:43:25.915Z,7.43
2022-09-27T18:46:18.078Z,5.70
2022-09-27T18:48:55.990Z,4.83
2022-09-27T18:51:26.793Z,7.13
2022-09-27T18:54:04.905Z,4.30
2022-09-27T18:56:39.012Z,5.40
2022-09-27T18:59:09.048Z,7.57
2022-09-27T19:01:39.815Z,4.97
2022-09-27T19:04:09.153Z,5.77
2022-09-27T19:06:38.059Z,7.47
2022-09-27T19:09:08.586Z,6.70
2022-09-27T19:11:37.040Z,8.17
2022-09-27T19:14:05.568Z,7.77
2022-09-27T19:16:34.039Z,6.77
2022-09-27T19:19:02.442Z,7.23
2022-09-27T19:21:31.432Z,6.87
2022-09-27T19:24:00.436Z,9.03
2022-09-27T19:26:30.185Z,7.63
2022-09-27T19:29:03.871Z,7.30
2022-09-27T19:31:32.340Z,7.17
2022-09-27T19:34:00.952Z,8.80
2022-09-27T19:36:29.761Z,6.73
2022-09-27T19:38:59.148Z,6.63
2022-09-27T19:41:28.121Z,8.37
2022-09-27T19:43:58.317Z,7.97
2022-09-27T19:46:28.150Z,8.23
2022-09-27T19:48:57.167Z,9.47
2022-09-27T19:51:29.647Z,7.60
2022-09-27T19:56:41.027Z,7.33
2022-09-27T19:59:10.798Z,7.30
2022-09-27T20:01:41.265Z,8.10
2022-09-27T20:04:09.881Z,6.80
2022-09-27T20:06:38.328Z,6.80
2022-09-27T20:09:06.855Z,7.40
2022-09-27T20:11:35.260Z,6.77
2022-09-27T20:14:03.682Z,6.97
2022-09-27T20:16:35.345Z,5.80
2022-09-27T20:19:06.448Z,6.97
2022-09-27T20:21:34.960Z,6.27
2022-09-27T20:24:03.973Z,8.83
2022-09-27T20:26:34.591Z,7.47
2022-09-27T20:29:03.128Z,7.47
2022-09-27T20:31:34.131Z,7.90
2022-09-27T20:34:02.711Z,5.67
2022-09-27T20:36:32.370Z,6.63
2022-09-27T20:39:11.670Z,6.70
2022-09-27T20:41:41.169Z,10.00
2022-09-27T20:44:11.148Z,7.87
2022-09-27T20:46:41.461Z,6.57
2022-09-27T20:49:10.579Z,5.50
2022-09-27T20:51:39.913Z,8.37
2022-09-27T20:54:09.296Z,6.93
2022-09-27T20:56:38.780Z,6.27
2022-09-27T20:59:11.550Z,5.43
2022-09-27T21:01:45.230Z,4.60
2022-09-27T21:04:14.492Z,6.17
2022-09-27T21:06:43.427Z,4.90
2022-09-27T21:09:18.304Z,4.97
2022-09-27T21:11:47.139Z,7.47
2022-09-27T21:14:15.747Z,4.70
2022-09-27T21:16:45.931Z,4.90
2022-09-27T21:19:14.574Z,4.50
2022-09-27T21:21:43.136Z,4.37
2022-09-27T21:24:11.644Z,5.87
2022-09-27T21:26:40.191Z,6.87
2022-09-27T21:29:09.629Z,4.80
2022-09-27T21:31:38.695Z,6.13
2022-09-27T21:34:08.804Z,6.47
2022-09-27T21:36:38.511Z,6.20
2022-09-27T21:39:08.702Z,7.93
2022-09-27T21:41:37.473Z,10.67
2022-09-27T21:44:06.558Z,5.80
2022-09-27T21:46:35.462Z,5.87
2022-09-27T21:49:04.094Z,5.87
2022-09-27T21:51:36.495Z,5.50
2022-09-27T21:54:05.862Z,4.83
2022-09-27T21:56:35.872Z,6.50
2022-09-27T21:59:04.404Z,5.53
2022-09-27T22:01:34.293Z,5.80
2022-09-27T22:04:03.554Z,5.10
2022-09-27T22:06:32.664Z,6.00
2022-09-27T22:09:03.189Z,5.73
2022-09-27T22:11:32.448Z,4.87
2022-09-27T22:14:01.467Z,6.67
2022-09-27T22:16:30.509Z,4.73
2022-09-27T22:18:59.264Z,5.00
2022-09-27T22:21:28.496Z,5.63
2022-09-27T22:23:56.931Z,6.57
2022-09-27T22:26:27.972Z,4.97
2022-09-27T22:28:56.674Z,4.60
2022-09-27T22:31:25.573Z,7.30
2022-09-27T22:33:54.869Z,5.83
2022-09-27T22:36:24.071Z,5.97
2022-09-27T22:38:53.056Z,5.10
2022-09-27T22:41:21.853Z,5.37
2022-09-27T22:43:53.604Z,5.80
2022-09-27T22:46:22.183Z,5.00
2022-09-27T22:48:50.875Z,6.80
2022-09-27T22:51:19.862Z,6.67
2022-09-27T22:53:48.345Z,8.27
2022-09-27T22:56:17.874Z,8.07
2022-09-27T22:58:47.411Z,7.10
2022-09-27T23:01:17.839Z,9.70
2022-09-27T23:03:46.922Z,10.63
2022-09-27T23:06:15.893Z,12.70
2022-09-27T23:08:44.696Z,9.50
2022-09-27T23:11:14.020Z,11.50
2022-09-27T23:13:43.217Z,11.23
2022-09-27T23:16:13.694Z,13.17
2022-09-27T23:18:44.148Z,12.03
2022-09-27T23:21:14.421Z,14.37
2022-09-27T23:23:45.091Z,11.93
2022-09-27T23:26:14.764Z,12.60
2022-09-27T23:28:46.199Z,16.23
2022-09-27T23:31:15.290Z,13.60
2022-09-27T23:33:46.449Z,14.70
2022-09-27T23:36:16.389Z,15.23
2022-09-27T23:38:45.820Z,16.23
2022-09-27T23:41:14.407Z,17.43
2022-09-27T23:43:43.131Z,15.43
2022-09-27T23:46:11.553Z,16.17
2022-09-27T23:48:40.310Z,15.93
2022-09-27T23:51:11.633Z,17.67
2022-09-27T23:53:40.676Z,18.33
2022-09-27T23:56:09.888Z,15.73
2022-09-27T23:58:39.714Z,16.70
